sensor_id;sensor_type;location;lat;lon;timestamp;P1;durP1;ratioP1;P2;durP2;ratioP2
18596;SDS011;9428;50.950;6.912;2024-03-23T00:55:27;23.25;;;7.95;;
18596;SDS011;9428;50.950;6.912;2024-03-23T00:58:13;20.42;;;7.80;;
18596;SDS011;9428;50.950;6.912;2024-03-23T01:01:00;19.25;;;8.18;;
18596;SDS011;9428;50.950;6.912;2024-03-23T01:03:49;17.40;;;8.35;;
18596;SDS011;9428;50.950;6.912;2024-03-23T01:06:35;21.08;;;10.05;;
18596;SDS011;9428;50.950;6.912;2024-03-23T01:09:24;27.45;;;10.25;;
18596;SDS011;9428;50.950;6.912;2024-03-23T01:12:10;24.58;;;11.00;;
18596;SDS011;9428;50.950;6.912;2024-03-23T01:14:57;22.35;;;9.73;;
18596;SDS011;9428;50.950;6.912;2024-03-23T01:17:44;20.00;;;9.20;;
18596;SDS011;9428;50.950;6.912;2024-03-23T01:20:31;15.80;;;7.70;;
18596;SDS011;9428;50.950;6.912;2024-03-23T01:23:18;11.80;;;6.38;;
18596;SDS011;9428;50.950;6.912;2024-03-23T01:26:06;10.68;;;5.90;;
18596;SDS011;9428;50.950;6.912;2024-03-23T01:28:53;14.27;;;5.90;;
18596;SDS011;9428;50.950;6.912;2024-03-23T01:31:40;10.30;;;5.60;;
18596;SDS011;9428;50.950;6.912;2024-03-23T01:34:27;10.18;;;5.32;;
18596;SDS011;9428;50.950;6.912;2024-03-23T01:37:14;12.75;;;4.50;;
18596;SDS011;9428;50.950;6.912;2024-03-23T01:40:00;12.88;;;4.40;;
18596;SDS011;9428;50.950;6.912;2024-03-23T01:42:57;9.50;;;4.82;;
18596;SDS011;9428;50.950;6.912;2024-03-23T01:45:43;11.52;;;4.65;;
18596;SDS011;9428;50.950;6.912;2024-03-23T01:48:31;11.70;;;4.82;;
18596;SDS011;9428;50.950;6.912;2024-03-23T01:51:17;10.10;;;4.57;;
18596;SDS011;9428;50.950;6.912;2024-03-23T01:54:04;9.63;;;3.67;;
18596;SDS011;9428;50.950;6.912;2024-03-23T01:56:52;12.77;;;4.28;;
18596;SDS011;9428;50.950;6.912;2024-03-23T01:59:42;10.70;;;3.50;;
18596;SDS011;9428;50.950;6.912;2024-03-23T02:02:29;12.27;;;3.80;;
18596;SDS011;9428;50.950;6.912;2024-03-23T02:05:16;14.90;;;4.10;;
18596;SDS011;9428;50.950;6.912;2024-03-23T02:08:02;9.03;;;3.90;;
18596;SDS011;9428;50.950;6.912;2024-03-23T02:10:50;12.00;;;4.43;;
18596;SDS011;9428;50.950;6.912;2024-03-23T02:13:37;14.90;;;4.18;;
18596;SDS011;9428;50.950;6.912;2024-03-23T02:16:25;18.65;;;5.03;;
18596;SDS011;9428;50.950;6.912;2024-03-23T02:19:12;8.80;;;4.03;;
18596;SDS011;9428;50.950;6.912;2024-03-23T02:22:00;11.00;;;4.13;;
18596;SDS011;9428;50.950;6.912;2024-03-23T02:24:48;9.05;;;3.90;;
18596;SDS011;9428;50.950;6.912;2024-03-23T02:27:35;13.50;;;5.17;;
18596;SDS011;9428;50.950;6.912;2024-03-23T02:30:24;8.20;;;2.45;;
18596;SDS011;9428;50.950;6.912;2024-03-23T02:33:11;5.80;;;2.38;;
18596;SDS011;9428;50.950;6.912;2024-03-23T02:35:58;6.47;;;1.40;;
18596;SDS011;9428;50.950;6.912;2024-03-23T02:38:45;3.40;;;1.77;;
18596;SDS011;9428;50.950;6.912;2024-03-23T02:41:33;9.60;;;1.83;;
18596;SDS011;9428;50.950;6.912;2024-03-23T02:44:20;7.60;;;1.90;;
18596;SDS011;9428;50.950;6.912;2024-03-23T02:47:07;4.90;;;1.63;;
18596;SDS011;9428;50.950;6.912;2024-03-23T02:49:54;5.63;;;1.90;;
18596;SDS011;9428;50.950;6.912;2024-03-23T02:52:41;7.97;;;2.17;;
18596;SDS011;9428;50.950;6.912;2024-03-23T02:55:28;4.63;;;1.83;;
18596;SDS011;9428;50.950;6.912;2024-03-23T02:58:16;10.87;;;2.23;;
18596;SDS011;9428;50.950;6.912;2024-03-23T03:01:03;7.20;;;2.10;;
18596;SDS011;9428;50.950;6.912;2024-03-23T03:03:49;5.13;;;2.00;;
18596;SDS011;9428;50.950;6.912;2024-03-23T03:06:37;7.97;;;2.43;;
18596;SDS011;9428;50.950;6.912;2024-03-23T03:09:23;11.50;;;2.63;;
18596;SDS011;9428;50.950;6.912;2024-03-23T03:12:10;4.63;;;1.70;;
18596;SDS011;9428;50.950;6.912;2024-03-23T03:14:58;7.40;;;2.03;;
18596;SDS011;9428;50.950;6.912;2024-03-23T03:17:46;11.67;;;2.37;;
18596;SDS011;9428;50.950;6.912;2024-03-23T03:20:32;6.63;;;2.30;;
18596;SDS011;9428;50.950;6.912;2024-03-23T03:23:20;9.63;;;2.30;;
18596;SDS011;9428;50.950;6.912;2024-03-23T03:26:06;8.47;;;2.40;;
18596;SDS011;9428;50.950;6.912;2024-03-23T03:28:53;9.70;;;2.83;;
18596;SDS011;9428;50.950;6.912;2024-03-23T03:31:41;8.90;;;1.85;;
18596;SDS011;9428;50.950;6.912;2024-03-23T03:34:29;16.70;;;3.10;;
18596;SDS011;9428;50.950;6.912;2024-03-23T03:37:15;5.82;;;1.98;;
18596;SDS011;9428;50.950;6.912;2024-03-23T03:40:03;12.17;;;1.93;;
18596;SDS011;9428;50.950;6.912;2024-03-23T03:42:50;5.70;;;2.07;;
18596;SDS011;9428;50.950;6.912;2024-03-23T03:45:37;12.10;;;2.27;;
18596;SDS011;9428;50.950;6.912;2024-03-23T03:48:25;5.90;;;2.07;;
18596;SDS011;9428;50.950;6.912;2024-03-23T03:51:12;8.38;;;2.25;;
18596;SDS011;9428;50.950;6.912;2024-03-23T03:53:59;8.55;;;2.13;;
18596;SDS011;9428;50.950;6.912;2024-03-23T03:56:46;8.10;;;2.05;;
18596;SDS011;9428;50.950;6.912;2024-03-23T03:59:33;5.17;;;2.13;;
18596;SDS011;9428;50.950;6.912;2024-03-23T04:02:20;6.83;;;1.60;;
18596;SDS011;9428;50.950;6.912;2024-03-23T04:05:09;10.40;;;1.98;;
18596;SDS011;9428;50.950;6.912;2024-03-23T04:07:55;6.50;;;1.80;;
18596;SDS011;9428;50.950;6.912;2024-03-23T04:10:42;11.23;;;2.03;;
18596;SDS011;9428;50.950;6.912;2024-03-23T04:13:29;11.03;;;2.23;;
18596;SDS011;9428;50.950;6.912;2024-03-23T04:16:24;7.93;;;2.10;;
18596;SDS011;9428;50.950;6.912;2024-03-23T04:19:11;11.17;;;2.37;;
18596;SDS011;9428;50.950;6.912;2024-03-23T04:22:00;7.03;;;1.45;;
18596;SDS011;9428;50.950;6.912;2024-03-23T04:24:47;12.57;;;2.33;;
18596;SDS011;9428;50.950;6.912;2024-03-23T04:27:34;9.13;;;2.53;;
18596;SDS011;9428;50.950;6.912;2024-03-23T04:30:21;13.50;;;2.10;;
18596;SDS011;9428;50.950;6.912;2024-03-23T04:33:10;8.93;;;1.92;;
18596;SDS011;9428;50.950;6.912;2024-03-23T04:35:56;14.10;;;2.70;;
18596;SDS011;9428;50.950;6.912;2024-03-23T04:38:47;6.80;;;1.80;;
18596;SDS011;9428;50.950;6.912;2024-03-23T04:41:35;6.30;;;1.90;;
18596;SDS011;9428;50.950;6.912;2024-03-23T04:44:22;8.97;;;2.53;;
18596;SDS011;9428;50.950;6.912;2024-03-23T04:47:10;9.90;;;2.70;;
18596;SDS011;9428;50.950;6.912;2024-03-23T04:49:57;7.37;;;2.20;;
18596;SDS011;9428;50.950;6.912;2024-03-23T04:52:44;7.90;;;1.97;;
18596;SDS011;9428;50.950;6.912;2024-03-23T04:55:33;9.30;;;2.53;;
18596;SDS011;9428;50.950;6.912;2024-03-23T04:58:21;9.77;;;2.93;;
18596;SDS011;9428;50.950;6.912;2024-03-23T05:01:07;10.93;;;2.53;;
18596;SDS011;9428;50.950;6.912;2024-03-23T05:03:54;9.47;;;2.70;;
18596;SDS011;9428;50.950;6.912;2024-03-23T05:06:41;12.07;;;2.20;;
18596;SDS011;9428;50.950;6.912;2024-03-23T05:09:28;15.53;;;2.83;;
18596;SDS011;9428;50.950;6.912;2024-03-23T05:12:17;11.30;;;2.57;;
18596;SDS011;9428;50.950;6.912;2024-03-23T05:15:04;14.60;;;2.63;;
18596;SDS011;9428;50.950;6.912;2024-03-23T05:17:51;10.40;;;2.20;;
18596;SDS011;9428;50.950;6.912;2024-03-23T05:20:39;11.70;;;2.27;;
18596;SDS011;9428;50.950;6.912;2024-03-23T05:23:26;9.00;;;2.07;;
18596;SDS011;9428;50.950;6.912;2024-03-23T05:26:14;9.03;;;2.23;;
18596;SDS011;9428;50.950;6.912;2024-03-23T05:29:02;8.90;;;2.25;;
18596;SDS011;9428;50.950;6.912;2024-03-23T05:31:50;9.77;;;1.93;;
18596;SDS011;9428;50.950;6.912;2024-03-23T05:34:37;10.17;;;2.57;;
18596;SDS011;9428;50.950;6.912;2024-03-23T05:37:24;7.90;;;2.27;;
18596;SDS011;9428;50.950;6.912;2024-03-23T05:40:12;8.27;;;2.50;;
18596;SDS011;9428;50.950;6.912;2024-03-23T05:43:00;12.90;;;3.57;;
18596;SDS011;9428;50.950;6.912;2024-03-23T05:45:54;8.17;;;2.43;;
18596;SDS011;9428;50.950;6.912;2024-03-23T05:48:41;8.43;;;2.77;;
18596;SDS011;9428;50.950;6.912;2024-03-23T05:51:28;10.83;;;2.60;;
18596;SDS011;9428;50.950;6.912;2024-03-23T05:54:14;9.85;;;3.25;;
18596;SDS011;9428;50.950;6.912;2024-03-23T05:57:02;9.55;;;2.33;;
18596;SDS011;9428;50.950;6.912;2024-03-23T05:59:50;14.17;;;3.13;;
18596;SDS011;9428;50.950;6.912;2024-03-23T06:02:38;7.73;;;2.30;;
18596;SDS011;9428;50.950;6.912;2024-03-23T06:05:25;10.03;;;2.87;;
18596;SDS011;9428;50.950;6.912;2024-03-23T06:08:11;16.70;;;2.60;;
18596;SDS011;9428;50.950;6.912;2024-03-23T06:11:00;11.27;;;2.53;;
18596;SDS011;9428;50.950;6.912;2024-03-23T06:13:46;18.20;;;2.53;;
18596;SDS011;9428;50.950;6.912;2024-03-23T06:16:34;11.07;;;2.30;;
18596;SDS011;9428;50.950;6.912;2024-03-23T06:19:21;10.97;;;2.97;;
18596;SDS011;9428;50.950;6.912;2024-03-23T06:22:09;10.47;;;2.33;;
18596;SDS011;9428;50.950;6.912;2024-03-23T06:24:55;13.00;;;3.80;;
18596;SDS011;9428;50.950;6.912;2024-03-23T06:27:42;10.97;;;2.57;;
18596;SDS011;9428;50.950;6.912;2024-03-23T06:30:30;15.60;;;2.80;;
18596;SDS011;9428;50.950;6.912;2024-03-23T06:33:18;14.40;;;2.87;;
18596;SDS011;9428;50.950;6.912;2024-03-23T06:36:07;14.20;;;3.00;;
18596;SDS011;9428;50.950;6.912;2024-03-23T06:38:56;10.23;;;3.03;;
18596;SDS011;9428;50.950;6.912;2024-03-23T06:41:42;10.00;;;3.30;;
18596;SDS011;9428;50.950;6.912;2024-03-23T06:44:37;11.93;;;3.13;;
18596;SDS011;9428;50.950;6.912;2024-03-23T06:47:24;13.17;;;3.10;;
18596;SDS011;9428;50.950;6.912;2024-03-23T06:50:12;13.67;;;3.57;;
18596;SDS011;9428;50.950;6.912;2024-03-23T06:53:00;13.47;;;3.47;;
18596;SDS011;9428;50.950;6.912;2024-03-23T06:55:49;18.03;;;3.37;;
18596;SDS011;9428;50.950;6.912;2024-03-23T06:58:48;16.03;;;3.40;;
18596;SDS011;9428;50.950;6.912;2024-03-23T07:01:40;11.77;;;3.40;;
18596;SDS011;9428;50.950;6.912;2024-03-23T07:04:28;10.10;;;3.13;;
18596;SDS011;9428;50.950;6.912;2024-03-23T07:07:15;9.27;;;3.43;;
18596;SDS011;9428;50.950;6.912;2024-03-23T07:10:04;11.20;;;2.80;;
18596;SDS011;9428;50.950;6.912;2024-03-23T07:12:51;11.73;;;3.47;;
18596;SDS011;9428;50.950;6.912;2024-03-23T07:15:38;10.67;;;3.10;;
18596;SDS011;9428;50.950;6.912;2024-03-23T07:18:25;11.70;;;3.97;;
18596;SDS011;9428;50.950;6.912;2024-03-23T07:21:12;12.60;;;3.83;;
18596;SDS011;9428;50.950;6.912;2024-03-23T07:24:00;13.47;;;3.83;;
18596;SDS011;9428;50.950;6.912;2024-03-23T07:26:49;11.93;;;3.80;;
18596;SDS011;9428;50.950;6.912;2024-03-23T07:29:36;10.27;;;4.63;;
18596;SDS011;9428;50.950;6.912;2024-03-23T07:32:23;11.80;;;4.93;;
18596;SDS011;9428;50.950;6.912;2024-03-23T07:35:12;15.70;;;5.80;;
18596;SDS011;9428;50.950;6.912;2024-03-23T07:37:59;13.60;;;5.33;;
18596;SDS011;9428;50.950;6.912;2024-03-23T07:40:50;16.73;;;5.20;;
18596;SDS011;9428;50.950;6.912;2024-03-23T07:43:43;16.30;;;5.87;;
18596;SDS011;9428;50.950;6.912;2024-03-23T07:46:29;13.77;;;5.77;;
18596;SDS011;9428;50.950;6.912;2024-03-23T07:49:17;15.37;;;5.80;;
18596;SDS011;9428;50.950;6.912;2024-03-23T07:52:03;15.60;;;5.93;;
18596;SDS011;9428;50.950;6.912;2024-03-23T07:54:51;13.53;;;5.47;;
18596;SDS011;9428;50.950;6.912;2024-03-23T07:57:38;11.80;;;5.63;;
18596;SDS011;9428;50.950;6.912;2024-03-23T08:00:26;12.30;;;6.10;;
18596;SDS011;9428;50.950;6.912;2024-03-23T08:03:13;20.70;;;5.83;;
18596;SDS011;9428;50.950;6.912;2024-03-23T08:06:06;13.93;;;5.70;;
18596;SDS011;9428;50.950;6.912;2024-03-23T08:08:54;20.13;;;5.77;;
18596;SDS011;9428;50.950;6.912;2024-03-23T08:11:45;13.67;;;5.07;;
18596;SDS011;9428;50.950;6.912;2024-03-23T08:14:32;9.63;;;5.55;;
18596;SDS011;9428;50.950;6.912;2024-03-23T08:17:21;12.13;;;4.60;;
18596;SDS011;9428;50.950;6.912;2024-03-23T08:20:08;13.07;;;4.33;;
18596;SDS011;9428;50.950;6.912;2024-03-23T08:22:56;7.93;;;4.07;;
18596;SDS011;9428;50.950;6.912;2024-03-23T08:25:42;13.67;;;4.13;;
18596;SDS011;9428;50.950;6.912;2024-03-23T08:28:30;7.72;;;3.53;;
18596;SDS011;9428;50.950;6.912;2024-03-23T08:31:16;9.38;;;3.35;;
18596;SDS011;9428;50.950;6.912;2024-03-23T08:34:05;9.25;;;2.22;;
18596;SDS011;9428;50.950;6.912;2024-03-23T08:36:51;8.05;;;2.80;;
18596;SDS011;9428;50.950;6.912;2024-03-23T08:39:39;9.02;;;3.63;;
18596;SDS011;9428;50.950;6.912;2024-03-23T08:42:25;9.13;;;4.00;;
18596;SDS011;9428;50.950;6.912;2024-03-23T08:45:13;7.38;;;3.38;;
18596;SDS011;9428;50.950;6.912;2024-03-23T08:47:59;12.93;;;4.38;;
18596;SDS011;9428;50.950;6.912;2024-03-23T08:50:59;13.75;;;4.35;;
18596;SDS011;9428;50.950;6.912;2024-03-23T08:53:46;9.73;;;4.53;;
18596;SDS011;9428;50.950;6.912;2024-03-23T08:56:33;14.20;;;4.17;;
18596;SDS011;9428;50.950;6.912;2024-03-23T08:59:20;13.10;;;4.45;;
18596;SDS011;9428;50.950;6.912;2024-03-23T09:02:09;16.30;;;5.72;;
18596;SDS011;9428;50.950;6.912;2024-03-23T09:04:55;14.80;;;5.57;;
18596;SDS011;9428;50.950;6.912;2024-03-23T09:07:50;11.63;;;4.43;;
18596;SDS011;9428;50.950;6.912;2024-03-23T09:10:38;15.07;;;3.97;;
18596;SDS011;9428;50.950;6.912;2024-03-23T09:13:26;14.52;;;4.75;;
18596;SDS011;9428;50.950;6.912;2024-03-23T09:16:16;14.27;;;4.70;;
18596;SDS011;9428;50.950;6.912;2024-03-23T09:19:06;17.85;;;4.10;;
18596;SDS011;9428;50.950;6.912;2024-03-23T09:21:53;11.40;;;3.33;;
18596;SDS011;9428;50.950;6.912;2024-03-23T09:24:41;8.70;;;3.50;;
18596;SDS011;9428;50.950;6.912;2024-03-23T09:27:28;9.88;;;2.78;;
18596;SDS011;9428;50.950;6.912;2024-03-23T09:30:15;12.13;;;3.70;;
18596;SDS011;9428;50.950;6.912;2024-03-23T09:33:02;11.23;;;3.58;;
18596;SDS011;9428;50.950;6.912;2024-03-23T09:35:49;11.85;;;3.35;;
18596;SDS011;9428;50.950;6.912;2024-03-23T09:38:36;12.13;;;2.95;;
18596;SDS011;9428;50.950;6.912;2024-03-23T09:41:24;8.77;;;2.97;;
18596;SDS011;9428;50.950;6.912;2024-03-23T09:44:11;12.75;;;3.25;;
18596;SDS011;9428;50.950;6.912;2024-03-23T09:46:58;10.48;;;2.40;;
18596;SDS011;9428;50.950;6.912;2024-03-23T09:49:46;13.20;;;2.87;;
18596;SDS011;9428;50.950;6.912;2024-03-23T09:52:32;9.55;;;2.75;;
18596;SDS011;9428;50.950;6.912;2024-03-23T09:55:19;9.57;;;2.77;;
18596;SDS011;9428;50.950;6.912;2024-03-23T09:58:07;7.68;;;2.65;;
18596;SDS011;9428;50.950;6.912;2024-03-23T10:00:58;4.70;;;2.13;;
18596;SDS011;9428;50.950;6.912;2024-03-23T10:03:44;9.23;;;2.60;;
18596;SDS011;9428;50.950;6.912;2024-03-23T10:06:32;10.70;;;2.22;;
18596;SDS011;9428;50.950;6.912;2024-03-23T10:09:19;8.73;;;2.47;;
18596;SDS011;9428;50.950;6.912;2024-03-23T10:12:08;6.85;;;1.98;;
18596;SDS011;9428;50.950;6.912;2024-03-23T10:14:57;8.05;;;2.58;;
18596;SDS011;9428;50.950;6.912;2024-03-23T10:17:44;11.77;;;2.58;;
18596;SDS011;9428;50.950;6.912;2024-03-23T10:20:31;5.82;;;2.05;;
18596;SDS011;9428;50.950;6.912;2024-03-23T10:23:18;8.50;;;2.10;;
18596;SDS011;9428;50.950;6.912;2024-03-23T10:26:15;11.13;;;2.50;;
18596;SDS011;9428;50.950;6.912;2024-03-23T10:29:06;7.50;;;1.80;;
18596;SDS011;9428;50.950;6.912;2024-03-23T10:31:54;12.38;;;2.45;;
18596;SDS011;9428;50.950;6.912;2024-03-23T10:34:53;7.07;;;2.28;;
18596;SDS011;9428;50.950;6.912;2024-03-23T10:37:41;8.50;;;2.00;;
18596;SDS011;9428;50.950;6.912;2024-03-23T10:40:28;7.75;;;2.83;;
18596;SDS011;9428;50.950;6.912;2024-03-23T10:43:16;10.27;;;2.38;;
18596;SDS011;9428;50.950;6.912;2024-03-23T10:46:08;8.13;;;2.63;;
18596;SDS011;9428;50.950;6.912;2024-03-23T10:49:17;7.80;;;2.15;;
18596;SDS011;9428;50.950;6.912;2024-03-23T10:52:03;8.60;;;2.50;;
18596;SDS011;9428;50.950;6.912;2024-03-23T10:54:51;7.13;;;2.65;;
18596;SDS011;9428;50.950;6.912;2024-03-23T10:57:40;10.50;;;2.05;;
18596;SDS011;9428;50.950;6.912;2024-03-23T11:00:30;7.38;;;2.00;;
18596;SDS011;9428;50.950;6.912;2024-03-23T11:03:35;3.92;;;1.42;;
18596;SDS011;9428;50.950;6.912;2024-03-23T11:06:34;4.43;;;1.55;;
18596;SDS011;9428;50.950;6.912;2024-03-23T11:09:38;6.45;;;2.38;;
18596;SDS011;9428;50.950;6.912;2024-03-23T11:12:25;11.10;;;2.00;;
18596;SDS011;9428;50.950;6.912;2024-03-23T11:15:16;7.65;;;2.05;;
18596;SDS011;9428;50.950;6.912;2024-03-23T11:18:02;6.93;;;2.83;;
18596;SDS011;9428;50.950;6.912;2024-03-23T11:20:51;4.22;;;1.80;;
18596;SDS011;9428;50.950;6.912;2024-03-23T11:23:39;4.53;;;1.20;;
18596;SDS011;9428;50.950;6.912;2024-03-23T11:26:26;6.40;;;1.40;;
18596;SDS011;9428;50.950;6.912;2024-03-23T11:29:13;3.10;;;1.27;;
18596;SDS011;9428;50.950;6.912;2024-03-23T11:32:01;3.67;;;1.20;;
18596;SDS011;9428;50.950;6.912;2024-03-23T11:34:49;2.70;;;1.00;;
18596;SDS011;9428;50.950;6.912;2024-03-23T11:37:37;2.88;;;1.88;;
18596;SDS011;9428;50.950;6.912;2024-03-23T11:40:26;5.03;;;1.50;;
18596;SDS011;9428;50.950;6.912;2024-03-23T11:43:13;4.00;;;1.10;;
18596;SDS011;9428;50.950;6.912;2024-03-23T11:46:00;7.17;;;1.40;;
18596;SDS011;9428;50.950;6.912;2024-03-23T11:48:49;5.80;;;1.40;;
18596;SDS011;9428;50.950;6.912;2024-03-23T11:51:37;3.78;;;1.17;;
18596;SDS011;9428;50.950;6.912;2024-03-23T11:54:24;5.45;;;1.40;;
18596;SDS011;9428;50.950;6.912;2024-03-23T11:57:13;3.20;;;1.30;;
18596;SDS011;9428;50.950;6.912;2024-03-23T12:00:00;3.28;;;1.40;;
18596;SDS011;9428;50.950;6.912;2024-03-23T12:02:47;3.67;;;2.13;;
18596;SDS011;9428;50.950;6.912;2024-03-23T12:05:34;4.00;;;1.80;;
18596;SDS011;9428;50.950;6.912;2024-03-23T12:08:22;4.50;;;1.73;;
18596;SDS011;9428;50.950;6.912;2024-03-23T12:11:11;6.50;;;2.87;;
18596;SDS011;9428;50.950;6.912;2024-03-23T12:14:00;6.30;;;4.23;;
18596;SDS011;9428;50.950;6.912;2024-03-23T12:16:47;9.00;;;3.13;;
18596;SDS011;9428;50.950;6.912;2024-03-23T12:19:34;5.33;;;3.50;;
18596;SDS011;9428;50.950;6.912;2024-03-23T12:22:21;9.13;;;4.33;;
18596;SDS011;9428;50.950;6.912;2024-03-23T12:25:08;3.53;;;2.30;;
18596;SDS011;9428;50.950;6.912;2024-03-23T12:27:57;3.80;;;1.73;;
18596;SDS011;9428;50.950;6.912;2024-03-23T12:30:45;2.28;;;1.80;;
18596;SDS011;9428;50.950;6.912;2024-03-23T12:33:32;5.63;;;1.80;;
18596;SDS011;9428;50.950;6.912;2024-03-23T12:36:19;2.37;;;1.23;;
18596;SDS011;9428;50.950;6.912;2024-03-23T12:39:06;1.93;;;1.27;;
18596;SDS011;9428;50.950;6.912;2024-03-23T12:41:52;3.27;;;0.90;;
18596;SDS011;9428;50.950;6.912;2024-03-23T12:44:40;2.53;;;1.40;;
18596;SDS011;9428;50.950;6.912;2024-03-23T12:47:28;1.23;;;0.80;;
18596;SDS011;9428;50.950;6.912;2024-03-23T12:50:16;2.70;;;1.00;;
18596;SDS011;9428;50.950;6.912;2024-03-23T12:53:04;1.53;;;0.80;;
18596;SDS011;9428;50.950;6.912;2024-03-23T12:55:50;2.00;;;1.00;;
18596;SDS011;9428;50.950;6.912;2024-03-23T12:58:37;2.90;;;1.23;;
18596;SDS011;9428;50.950;6.912;2024-03-23T13:01:24;2.17;;;1.20;;
18596;SDS011;9428;50.950;6.912;2024-03-23T13:04:12;1.50;;;0.90;;
18596;SDS011;9428;50.950;6.912;2024-03-23T13:06:59;2.73;;;0.90;;
18596;SDS011;9428;50.950;6.912;2024-03-23T13:09:47;2.42;;;1.00;;
18596;SDS011;9428;50.950;6.912;2024-03-23T13:12:35;1.97;;;1.00;;
18596;SDS011;9428;50.950;6.912;2024-03-23T13:15:22;5.70;;;1.20;;
18596;SDS011;9428;50.950;6.912;2024-03-23T13:18:09;1.83;;;1.08;;
18596;SDS011;9428;50.950;6.912;2024-03-23T13:20:57;5.30;;;1.60;;
18596;SDS011;9428;50.950;6.912;2024-03-23T13:23:46;7.70;;;2.00;;
18596;SDS011;9428;50.950;6.912;2024-03-23T13:26:35;4.20;;;1.88;;
18596;SDS011;9428;50.950;6.912;2024-03-23T13:29:23;6.10;;;2.00;;
18596;SDS011;9428;50.950;6.912;2024-03-23T13:32:10;7.50;;;2.20;;
18596;SDS011;9428;50.950;6.912;2024-03-23T13:34:57;5.45;;;2.20;;
18596;SDS011;9428;50.950;6.912;2024-03-23T13:37:45;6.68;;;1.90;;
18596;SDS011;9428;50.950;6.912;2024-03-23T13:40:33;5.38;;;2.10;;
18596;SDS011;9428;50.950;6.912;2024-03-23T13:43:19;4.97;;;2.08;;
18596;SDS011;9428;50.950;6.912;2024-03-23T13:46:07;6.15;;;2.20;;
18596;SDS011;9428;50.950;6.912;2024-03-23T13:48:54;6.97;;;2.03;;
18596;SDS011;9428;50.950;6.912;2024-03-23T13:51:40;5.65;;;2.10;;
18596;SDS011;9428;50.950;6.912;2024-03-23T13:54:34;4.63;;;1.92;;
18596;SDS011;9428;50.950;6.912;2024-03-23T13:57:23;4.68;;;1.17;;
18596;SDS011;9428;50.950;6.912;2024-03-23T14:00:11;6.50;;;1.75;;
18596;SDS011;9428;50.950;6.912;2024-03-23T14:03:00;3.08;;;1.30;;
18596;SDS011;9428;50.950;6.912;2024-03-23T14:05:46;3.05;;;1.08;;
18596;SDS011;9428;50.950;6.912;2024-03-23T14:08:34;2.67;;;1.10;;
18596;SDS011;9428;50.950;6.912;2024-03-23T14:11:22;3.00;;;1.00;;
18596;SDS011;9428;50.950;6.912;2024-03-23T14:14:11;5.13;;;1.30;;
18596;SDS011;9428;50.950;6.912;2024-03-23T14:16:58;6.00;;;1.60;;
18596;SDS011;9428;50.950;6.912;2024-03-23T14:19:45;4.50;;;1.88;;
18596;SDS011;9428;50.950;6.912;2024-03-23T14:22:31;3.10;;;1.20;;
18596;SDS011;9428;50.950;6.912;2024-03-23T14:25:19;3.88;;;1.60;;
18596;SDS011;9428;50.950;6.912;2024-03-23T14:28:08;4.05;;;1.20;;
18596;SDS011;9428;50.950;6.912;2024-03-23T14:30:59;4.60;;;2.90;;
18596;SDS011;9428;50.950;6.912;2024-03-23T14:33:46;4.53;;;3.17;;
18596;SDS011;9428;50.950;6.912;2024-03-23T14:36:34;10.95;;;2.58;;
18596;SDS011;9428;50.950;6.912;2024-03-23T14:39:22;3.67;;;1.40;;
18596;SDS011;9428;50.950;6.912;2024-03-23T14:42:09;5.30;;;1.80;;
18596;SDS011;9428;50.950;6.912;2024-03-23T14:44:57;4.72;;;1.75;;
18596;SDS011;9428;50.950;6.912;2024-03-23T14:47:44;3.58;;;1.50;;
18596;SDS011;9428;50.950;6.912;2024-03-23T14:50:31;5.03;;;1.30;;
18596;SDS011;9428;50.950;6.912;2024-03-23T14:53:20;2.72;;;1.55;;
18596;SDS011;9428;50.950;6.912;2024-03-23T14:56:06;3.70;;;1.67;;
18596;SDS011;9428;50.950;6.912;2024-03-23T14:58:55;1.33;;;0.95;;
18596;SDS011;9428;50.950;6.912;2024-03-23T15:01:43;3.80;;;1.53;;
18596;SDS011;9428;50.950;6.912;2024-03-23T15:04:30;4.57;;;2.07;;
18596;SDS011;9428;50.950;6.912;2024-03-23T15:07:17;2.90;;;1.27;;
18596;SDS011;9428;50.950;6.912;2024-03-23T15:10:05;2.53;;;1.47;;
18596;SDS011;9428;50.950;6.912;2024-03-23T15:12:53;3.80;;;1.07;;
18596;SDS011;9428;50.950;6.912;2024-03-23T15:15:40;2.93;;;1.83;;
18596;SDS011;9428;50.950;6.912;2024-03-23T15:18:30;2.13;;;0.80;;
18596;SDS011;9428;50.950;6.912;2024-03-23T15:21:18;1.97;;;0.90;;
18596;SDS011;9428;50.950;6.912;2024-03-23T15:24:07;2.93;;;1.63;;
18596;SDS011;9428;50.950;6.912;2024-03-23T15:26:56;4.07;;;2.10;;
18596;SDS011;9428;50.950;6.912;2024-03-23T15:29:42;3.97;;;1.63;;
18596;SDS011;9428;50.950;6.912;2024-03-23T15:32:31;4.33;;;2.00;;
18596;SDS011;9428;50.950;6.912;2024-03-23T15:35:19;5.13;;;1.50;;
18596;SDS011;9428;50.950;6.912;2024-03-23T15:38:08;1.77;;;1.00;;
18596;SDS011;9428;50.950;6.912;2024-03-23T15:40:55;4.30;;;1.35;;
18596;SDS011;9428;50.950;6.912;2024-03-23T15:43:42;4.63;;;1.88;;
18596;SDS011;9428;50.950;6.912;2024-03-23T15:46:28;7.03;;;2.13;;
18596;SDS011;9428;50.950;6.912;2024-03-23T15:49:16;7.37;;;2.30;;
18596;SDS011;9428;50.950;6.912;2024-03-23T15:52:05;3.90;;;1.73;;
18596;SDS011;9428;50.950;6.912;2024-03-23T15:54:51;2.57;;;1.60;;
18596;SDS011;9428;50.950;6.912;2024-03-23T15:57:39;6.90;;;3.40;;
18596;SDS011;9428;50.950;6.912;2024-03-23T16:00:26;5.53;;;2.50;;
18596;SDS011;9428;50.950;6.912;2024-03-23T16:03:14;6.30;;;2.17;;
18596;SDS011;9428;50.950;6.912;2024-03-23T16:06:01;5.40;;;1.70;;
18596;SDS011;9428;50.950;6.912;2024-03-23T16:08:51;3.10;;;1.50;;
18596;SDS011;9428;50.950;6.912;2024-03-23T16:11:40;4.23;;;1.70;;
18596;SDS011;9428;50.950;6.912;2024-03-23T16:14:27;4.03;;;1.65;;
18596;SDS011;9428;50.950;6.912;2024-03-23T16:17:14;2.73;;;1.60;;
18596;SDS011;9428;50.950;6.912;2024-03-23T16:20:02;5.00;;;1.65;;
18596;SDS011;9428;50.950;6.912;2024-03-23T16:22:58;3.87;;;2.17;;
18596;SDS011;9428;50.950;6.912;2024-03-23T16:25:47;3.33;;;1.40;;
18596;SDS011;9428;50.950;6.912;2024-03-23T16:28:41;8.50;;;1.67;;
18596;SDS011;9428;50.950;6.912;2024-03-23T16:31:28;2.37;;;1.50;;
18596;SDS011;9428;50.950;6.912;2024-03-23T16:34:15;3.10;;;1.23;;
18596;SDS011;9428;50.950;6.912;2024-03-23T16:37:03;1.67;;;1.10;;
18596;SDS011;9428;50.950;6.912;2024-03-23T16:39:49;3.13;;;1.23;;
18596;SDS011;9428;50.950;6.912;2024-03-23T16:42:38;3.10;;;1.33;;
18596;SDS011;9428;50.950;6.912;2024-03-23T16:45:25;3.47;;;2.40;;
18596;SDS011;9428;50.950;6.912;2024-03-23T16:48:12;1.92;;;1.60;;
18596;SDS011;9428;50.950;6.912;2024-03-23T16:50:59;2.10;;;1.20;;
18596;SDS011;9428;50.950;6.912;2024-03-23T16:53:48;5.13;;;1.40;;
18596;SDS011;9428;50.950;6.912;2024-03-23T16:56:35;3.20;;;1.60;;
18596;SDS011;9428;50.950;6.912;2024-03-23T16:59:26;3.57;;;1.63;;
18596;SDS011;9428;50.950;6.912;2024-03-23T17:02:16;2.50;;;1.60;;
18596;SDS011;9428;50.950;6.912;2024-03-23T17:05:03;2.60;;;1.50;;
18596;SDS011;9428;50.950;6.912;2024-03-23T17:07:50;2.60;;;1.50;;
18596;SDS011;9428;50.950;6.912;2024-03-23T17:10:38;5.27;;;1.90;;
18596;SDS011;9428;50.950;6.912;2024-03-23T17:13:24;4.87;;;2.23;;
18596;SDS011;9428;50.950;6.912;2024-03-23T17:16:14;4.20;;;1.40;;
18596;SDS011;9428;50.950;6.912;2024-03-23T17:19:02;4.83;;;2.10;;
18596;SDS011;9428;50.950;6.912;2024-03-23T17:21:49;2.33;;;1.20;;
18596;SDS011;9428;50.950;6.912;2024-03-23T17:24:35;2.97;;;1.40;;
18596;SDS011;9428;50.950;6.912;2024-03-23T17:27:23;2.20;;;1.20;;
18596;SDS011;9428;50.950;6.912;2024-03-23T17:30:10;2.77;;;1.20;;
18596;SDS011;9428;50.950;6.912;2024-03-23T17:33:02;6.57;;;1.50;;
18596;SDS011;9428;50.950;6.912;2024-03-23T17:35:50;1.90;;;1.00;;
18596;SDS011;9428;50.950;6.912;2024-03-23T17:38:36;4.43;;;1.10;;
18596;SDS011;9428;50.950;6.912;2024-03-23T17:41:23;3.17;;;1.37;;
18596;SDS011;9428;50.950;6.912;2024-03-23T17:44:11;5.47;;;1.20;;
18596;SDS011;9428;50.950;6.912;2024-03-23T17:46:58;5.03;;;1.50;;
18596;SDS011;9428;50.950;6.912;2024-03-23T17:49:46;3.93;;;1.27;;
18596;SDS011;9428;50.950;6.912;2024-03-23T17:52:34;3.83;;;1.20;;
18596;SDS011;9428;50.950;6.912;2024-03-23T17:55:21;4.23;;;1.50;;